Etusivu
METAR-TAF:

METAR-TAF

Lentoasemat :

Rønne, Tanska

Leveyspiiri: 55-04N, Pituuspiiri: 014-45E, korkeus merenpinnasta: 16 m

Tämänhetkinen sää

Tämä raportti tehtiin 39 minuuttia sitten, kello 14.20 UTC
Tuuli 1 kn pohjoisen/luoteesta
Lämpötila 6°C
Kosteus 93%
Ilmanpaine 1006 hPa
Näkyvyys 10 km tai enemmän
heikkoa sadetta

METAR: EKRN 241420Z AUTO 34001KT 9999NDV -RA OVC027/// 06/05 Q1006

Aika: 15:59 (14:59 UTC)

Sääennuste

Tämä raportti tehtiin 48 minuuttia sitten, kello 14.11 UTC
Ennuste voimassa 24. päivästä klo 15 UTC - 24. päivään klo 23 UTC
Tuuli 10 kn lounaasta
Näkyvyys 10 km tai enemmän
Hajanaisia pilviä 1200 ft:n korkeudessa
Hajonneita pilviä 4000 ft:n korkeudessa
heikkoa sadetta, tihkusadetta
Ajoittain
24. päivästä klo 15 UTC - 24. päivään klo 23 UTC
Näkyvyys: 4000 m
Hajonneita pilviä 800 ft:n korkeudessa
sadetta, tihkusadetta, utua

TAF: EKRN 241411Z 2415/2423 23010KT 9999 -RADZ SCT012 BKN040 TEMPO 2415/2423 4000 RADZ BR BKN008

Säähavainnot ja -ennusteet yli 4000 lentoasemalta (METAR- ja TAF-raportit).

Käytössä olevat sääasemat on merkitty karttaan keltaisilla ja punaisilla pisteillä.

Aseta hiiri pisteen päälle nähdäksesi sääaseman nimen.

Klikkaa sitten nähdäksesi säähavainnot ja -ennusteet.

Kartan vaihtaminen: klikkaa mustalla rastilla varustettuja vihreitä pisteitä, niin voit zoomata sisään; viivalla varustettua vihreää pistettä, niin voit zoomata ulos tai vihreitä nuolia, niin pääset viereisille kartoille.


METAR-TAF: